createdAt,value
2018-07-30T00:01:19.809Z,99.90
2018-07-30T00:03:48.453Z,99.90
2018-07-30T00:06:17.049Z,99.90
2018-07-30T00:08:45.678Z,99.90
2018-07-30T00:11:14.272Z,99.90
2018-07-30T00:13:42.958Z,99.90
2018-07-30T00:16:11.571Z,99.90
2018-07-30T00:18:40.302Z,99.90
2018-07-30T00:21:08.962Z,99.90
2018-07-30T00:23:37.748Z,99.90
2018-07-30T00:26:06.479Z,99.90
2018-07-30T00:28:35.592Z,99.90
2018-07-30T00:31:04.338Z,99.90
2018-07-30T00:33:32.954Z,99.90
2018-07-30T00:36:01.585Z,99.90
2018-07-30T00:38:30.241Z,99.90
2018-07-30T00:40:58.882Z,99.90
2018-07-30T00:43:27.508Z,99.90
2018-07-30T00:45:56.096Z,99.90
2018-07-30T00:48:24.671Z,99.90
2018-07-30T00:50:53.484Z,99.90
2018-07-30T00:53:22.121Z,99.90
2018-07-30T00:58:19.009Z,99.90
2018-07-30T01:00:47.711Z,99.90
2018-07-30T01:03:16.434Z,99.90
2018-07-30T01:05:45.169Z,99.90
2018-07-30T01:08:13.807Z,99.90
2018-07-30T01:10:42.433Z,99.90
2018-07-30T01:13:11.073Z,99.90
2018-07-30T01:15:39.662Z,99.90
2018-07-30T01:18:08.454Z,99.90
2018-07-30T01:20:37.136Z,99.90
2018-07-30T01:23:05.877Z,99.90
2018-07-30T01:25:34.594Z,99.90
2018-07-30T01:28:03.324Z,99.90
2018-07-30T01:30:35.169Z,99.90
2018-07-30T01:33:03.957Z,99.90
2018-07-30T01:38:00.987Z,99.90
2018-07-30T01:40:29.593Z,99.90
2018-07-30T01:42:58.184Z,99.90
2018-07-30T01:45:26.851Z,99.90
2018-07-30T01:47:55.479Z,99.90
2018-07-30T01:50:24.150Z,99.90
2018-07-30T01:52:53.535Z,99.90
2018-07-30T01:55:22.255Z,99.90
2018-07-30T01:57:50.845Z,99.90
2018-07-30T02:00:19.472Z,99.90
2018-07-30T02:02:48.101Z,99.90
2018-07-30T02:05:16.740Z,99.90
2018-07-30T02:07:45.342Z,99.90
2018-07-30T02:10:13.988Z,99.90
2018-07-30T02:12:42.613Z,99.90
2018-07-30T02:15:13.485Z,99.90
2018-07-30T02:17:42.141Z,99.90
2018-07-30T02:20:10.795Z,99.90
2018-07-30T02:22:39.444Z,99.90
2018-07-30T02:25:08.702Z,99.90
2018-07-30T02:27:37.361Z,99.90
2018-07-30T02:30:07.329Z,99.90
2018-07-30T02:32:36.040Z,99.90
2018-07-30T02:35:05.777Z,99.90
2018-07-30T02:37:34.730Z,99.90
2018-07-30T02:40:03.532Z,99.90
2018-07-30T02:42:32.196Z,99.90
2018-07-30T02:45:00.874Z,99.90
2018-07-30T02:47:29.537Z,99.90
2018-07-30T02:49:58.138Z,99.90
2018-07-30T02:54:55.049Z,99.90
2018-07-30T02:57:23.696Z,99.90
2018-07-30T02:59:52.353Z,99.90
2018-07-30T03:02:21.023Z,99.90
2018-07-30T03:07:17.873Z,99.90
2018-07-30T03:09:46.476Z,99.90
2018-07-30T03:12:15.139Z,99.90
2018-07-30T03:14:43.898Z,99.90
2018-07-30T03:17:12.549Z,99.90
2018-07-30T03:19:41.221Z,99.90
2018-07-30T03:22:09.869Z,99.90
2018-07-30T03:24:38.541Z,99.90
2018-07-30T03:27:07.188Z,99.90
2018-07-30T03:29:35.910Z,99.90
2018-07-30T03:32:04.597Z,99.90
2018-07-30T03:34:33.377Z,99.90
2018-07-30T03:37:02.019Z,99.90
2018-07-30T03:39:30.678Z,99.90
2018-07-30T03:41:59.272Z,99.90
2018-07-30T03:44:27.945Z,99.90
2018-07-30T03:46:56.560Z,99.90
2018-07-30T03:49:25.171Z,99.90
2018-07-30T03:51:53.773Z,99.90
2018-07-30T03:54:22.524Z,99.90
2018-07-30T03:56:51.253Z,99.90
2018-07-30T03:59:20.445Z,99.90
2018-07-30T04:01:49.095Z,99.90
2018-07-30T04:04:17.705Z,99.90
2018-07-30T04:06:46.322Z,99.90
2018-07-30T04:09:14.929Z,99.90
2018-07-30T04:11:43.542Z,99.90
2018-07-30T04:14:12.151Z,99.90
2018-07-30T04:16:47.120Z,99.90
2018-07-30T04:19:16.013Z,99.90
2018-07-30T04:21:44.603Z,99.90
2018-07-30T04:24:13.269Z,99.90
2018-07-30T04:26:42.354Z,99.90
2018-07-30T04:29:10.942Z,99.90
2018-07-30T04:31:39.542Z,99.90
2018-07-30T04:34:08.229Z,99.90
2018-07-30T04:36:37.433Z,99.90
2018-07-30T04:39:10.422Z,99.90
2018-07-30T04:41:39.101Z,99.90
2018-07-30T04:44:08.037Z,99.90
2018-07-30T04:46:37.286Z,99.90
2018-07-30T04:49:05.978Z,99.90
2018-07-30T04:51:35.676Z,99.90
2018-07-30T04:54:04.746Z,99.90
2018-07-30T04:56:33.638Z,99.90
2018-07-30T04:59:02.305Z,99.90
2018-07-30T05:01:31.073Z,99.90
2018-07-30T05:03:59.707Z,99.90
2018-07-30T05:06:28.285Z,99.90
2018-07-30T05:08:56.908Z,99.90
2018-07-30T05:11:25.663Z,99.90
2018-07-30T05:13:54.218Z,99.90
2018-07-30T05:16:22.821Z,99.90
2018-07-30T05:18:51.505Z,99.90
2018-07-30T05:21:20.159Z,99.90
2018-07-30T05:23:48.793Z,99.90
2018-07-30T05:26:17.456Z,99.90
2018-07-30T05:28:46.061Z,99.90
2018-07-30T05:31:14.682Z,99.90
2018-07-30T05:33:43.335Z,99.90
2018-07-30T05:36:14.364Z,99.90
2018-07-30T05:38:43.161Z,99.90
2018-07-30T05:41:11.844Z,99.90
2018-07-30T05:43:40.529Z,99.90
2018-07-30T05:46:09.677Z,99.90
2018-07-30T05:48:38.376Z,99.90
2018-07-30T05:51:07.167Z,99.90
2018-07-30T05:53:35.894Z,99.90
2018-07-30T05:56:04.974Z,99.90
2018-07-30T05:58:33.741Z,99.90
2018-07-30T06:01:05.368Z,99.90
2018-07-30T06:03:34.027Z,99.90
2018-07-30T06:06:02.702Z,99.90
2018-07-30T06:08:31.457Z,99.90
2018-07-30T06:11:00.272Z,99.90
2018-07-30T06:13:28.861Z,99.90
2018-07-30T06:15:57.525Z,99.90
2018-07-30T06:18:26.198Z,99.90
2018-07-30T06:20:54.954Z,99.90
2018-07-30T06:23:23.638Z,99.90
2018-07-30T06:25:52.334Z,99.90
2018-07-30T06:28:21.015Z,99.90
2018-07-30T06:30:49.662Z,99.90
2018-07-30T06:33:18.297Z,99.90
2018-07-30T06:35:46.915Z,99.90
2018-07-30T06:38:15.532Z,99.90
2018-07-30T06:40:44.164Z,99.90
2018-07-30T06:43:12.814Z,99.90
2018-07-30T06:45:41.408Z,99.90
2018-07-30T06:48:10.126Z,99.90
2018-07-30T06:50:38.721Z,99.90
2018-07-30T06:53:07.380Z,99.90
2018-07-30T06:55:35.973Z,99.90
2018-07-30T06:58:04.617Z,99.90
2018-07-30T07:03:01.629Z,99.90
2018-07-30T07:05:30.279Z,99.90
2018-07-30T07:07:59.318Z,99.90
2018-07-30T07:10:28.108Z,99.90
2018-07-30T07:12:56.845Z,99.90
2018-07-30T07:15:25.533Z,99.90
2018-07-30T07:17:54.514Z,99.90
2018-07-30T07:20:23.184Z,99.90
2018-07-30T07:22:51.841Z,99.90
2018-07-30T07:25:20.477Z,99.90
2018-07-30T07:27:49.193Z,99.90
2018-07-30T07:32:46.064Z,99.90
2018-07-30T07:35:15.474Z,99.90
2018-07-30T07:37:44.142Z,99.90
2018-07-30T07:40:13.068Z,99.90
2018-07-30T07:42:41.845Z,99.90
2018-07-30T07:45:10.663Z,99.90
2018-07-30T07:47:39.356Z,99.90
2018-07-30T07:50:08.413Z,99.90
2018-07-30T07:52:36.981Z,99.90
2018-07-30T07:55:05.921Z,99.90
2018-07-30T07:57:34.577Z,99.90
2018-07-30T08:00:03.365Z,99.90
2018-07-30T08:02:32.022Z,99.90
2018-07-30T08:05:00.616Z,99.90
2018-07-30T08:07:29.894Z,99.90
2018-07-30T08:09:58.791Z,99.90
2018-07-30T08:12:27.474Z,99.90
2018-07-30T08:14:56.149Z,99.90
2018-07-30T08:17:24.962Z,99.90
2018-07-30T08:19:53.631Z,99.90
2018-07-30T08:22:22.392Z,99.90
2018-07-30T08:24:50.969Z,99.90
2018-07-30T08:27:19.671Z,99.90
2018-07-30T08:29:48.342Z,99.90
2018-07-30T08:32:17.089Z,99.90
2018-07-30T08:34:46.052Z,99.90
2018-07-30T08:37:14.745Z,99.90
2018-07-30T08:39:43.601Z,99.90
2018-07-30T08:42:12.280Z,99.90
2018-07-30T08:44:40.992Z,99.90
2018-07-30T08:47:09.633Z,99.90
2018-07-30T08:49:38.265Z,99.90
2018-07-30T08:52:07.013Z,99.90
2018-07-30T08:54:35.680Z,99.90
2018-07-30T08:57:04.370Z,99.90
2018-07-30T08:59:33.024Z,99.90
2018-07-30T09:02:01.659Z,99.90
2018-07-30T09:04:30.411Z,99.90
2018-07-30T09:06:59.214Z,99.90
2018-07-30T09:09:28.194Z,99.90
2018-07-30T09:11:57.067Z,99.90
2018-07-30T09:14:25.941Z,99.90
2018-07-30T09:16:54.670Z,99.90
2018-07-30T09:19:23.340Z,99.90
2018-07-30T09:21:51.966Z,99.90
2018-07-30T09:24:20.563Z,99.90
2018-07-30T09:26:49.265Z,99.90
2018-07-30T09:29:17.821Z,99.90
2018-07-30T09:31:46.527Z,99.90
2018-07-30T09:34:15.186Z,99.90
2018-07-30T09:36:43.818Z,99.90
2018-07-30T09:39:12.959Z,99.90
2018-07-30T09:41:41.777Z,99.90
2018-07-30T09:44:10.450Z,99.90
2018-07-30T09:46:39.117Z,99.90
2018-07-30T09:54:04.404Z,99.90
2018-07-30T09:56:34.159Z,99.90
2018-07-30T09:59:02.993Z,99.90
2018-07-30T10:01:31.789Z,99.90
2018-07-30T10:04:01.193Z,99.90
2018-07-30T10:06:29.845Z,99.90
2018-07-30T10:08:58.527Z,99.90
2018-07-30T10:11:27.234Z,99.90
2018-07-30T10:13:56.832Z,99.90
2018-07-30T10:16:25.473Z,99.90
2018-07-30T10:18:54.258Z,99.90
2018-07-30T10:21:22.976Z,99.90
2018-07-30T10:23:51.708Z,99.90
2018-07-30T10:26:20.332Z,99.90
2018-07-30T10:28:48.980Z,99.90
2018-07-30T10:31:17.684Z,99.90
2018-07-30T10:33:46.444Z,99.90
2018-07-30T10:36:15.218Z,99.90
2018-07-30T10:38:44.336Z,99.30
2018-07-30T10:41:13.249Z,99.40
2018-07-30T10:43:41.877Z,99.90
2018-07-30T10:46:10.645Z,97.50
2018-07-30T10:48:39.249Z,97.80
2018-07-30T10:51:07.947Z,98.10
2018-07-30T10:53:36.598Z,98.40
2018-07-30T10:56:05.657Z,97.50
2018-07-30T10:58:34.257Z,95.90
2018-07-30T11:01:02.921Z,94.70
2018-07-30T11:03:31.573Z,95.80
2018-07-30T11:06:00.153Z,94.60
2018-07-30T11:08:28.818Z,92.20
2018-07-30T11:10:57.453Z,92.60
2018-07-30T11:13:26.178Z,91.40
2018-07-30T11:15:55.034Z,91.30
2018-07-30T11:18:23.730Z,93.50
2018-07-30T11:20:52.353Z,92.60
2018-07-30T11:23:21.023Z,93.50
2018-07-30T11:25:49.857Z,90.40
2018-07-30T11:28:18.605Z,90.30
2018-07-30T11:30:47.482Z,90.50
2018-07-30T11:33:16.136Z,89.80
2018-07-30T11:35:44.787Z,84.90
2018-07-30T11:38:13.477Z,86.40
2018-07-30T11:40:42.134Z,87.60
2018-07-30T11:43:10.843Z,86.90
2018-07-30T11:45:39.707Z,86.10
2018-07-30T11:48:08.393Z,86.30
2018-07-30T11:50:37.032Z,84.70
2018-07-30T11:53:05.913Z,82.40
2018-07-30T11:55:34.558Z,87.20
2018-07-30T11:58:03.261Z,86.00
2018-07-30T12:00:32.833Z,85.90
2018-07-30T12:03:01.443Z,86.20
2018-07-30T12:05:30.070Z,82.40
2018-07-30T12:07:58.700Z,82.10
2018-07-30T12:10:27.367Z,77.60
2018-07-30T12:12:56.016Z,79.90
2018-07-30T12:15:24.761Z,83.40
2018-07-30T12:17:53.377Z,82.60
2018-07-30T12:20:22.037Z,78.50
2018-07-30T12:22:50.633Z,81.20
2018-07-30T12:25:19.229Z,81.80
2018-07-30T12:27:47.890Z,77.80
2018-07-30T12:30:16.634Z,84.40
2018-07-30T12:32:45.270Z,81.20
2018-07-30T12:35:13.898Z,82.00
2018-07-30T12:37:42.666Z,84.60
2018-07-30T12:40:11.465Z,85.10
2018-07-30T12:42:41.264Z,84.70
2018-07-30T12:45:09.877Z,83.90
2018-07-30T12:47:38.509Z,82.60
2018-07-30T12:50:07.193Z,78.90
2018-07-30T12:52:35.831Z,80.70
2018-07-30T12:55:04.570Z,78.70
2018-07-30T12:57:33.210Z,77.50
2018-07-30T13:00:01.883Z,81.90
2018-07-30T13:02:30.494Z,78.90
2018-07-30T13:04:59.141Z,77.30
2018-07-30T13:07:27.877Z,78.50
2018-07-30T13:09:56.617Z,78.30
2018-07-30T13:12:25.322Z,76.90
2018-07-30T13:14:54.053Z,77.00
2018-07-30T13:17:22.661Z,77.30
2018-07-30T13:19:51.314Z,75.00
2018-07-30T13:22:19.961Z,72.60
2018-07-30T13:24:48.581Z,72.10
2018-07-30T13:27:17.292Z,70.30
2018-07-30T13:29:45.889Z,74.40
2018-07-30T13:32:14.587Z,76.00
2018-07-30T13:34:43.236Z,77.50
2018-07-30T13:37:11.897Z,70.50
2018-07-30T13:39:40.542Z,70.50
2018-07-30T13:42:09.223Z,72.70
2018-07-30T13:44:37.932Z,73.80
2018-07-30T13:47:06.641Z,70.80
2018-07-30T13:49:35.957Z,72.60
2018-07-30T13:52:05.461Z,73.50
2018-07-30T13:54:34.169Z,75.60
2018-07-30T13:59:31.026Z,71.40
2018-07-30T14:01:59.701Z,71.90
2018-07-30T14:04:28.629Z,73.90
2018-07-30T14:06:57.289Z,73.40
2018-07-30T14:09:25.977Z,71.00
2018-07-30T14:11:54.717Z,72.20
2018-07-30T14:14:23.432Z,74.00
2018-07-30T14:16:52.144Z,71.70
2018-07-30T14:19:20.789Z,72.60
2018-07-30T14:21:49.716Z,76.40
2018-07-30T14:24:18.438Z,74.10
2018-07-30T14:26:47.053Z,74.60
2018-07-30T14:29:15.714Z,76.00
2018-07-30T14:31:44.361Z,82.50
2018-07-30T14:34:13.179Z,79.60
2018-07-30T14:36:52.426Z,78.20
2018-07-30T14:39:21.009Z,76.40
2018-07-30T14:41:49.655Z,71.20
2018-07-30T14:44:18.335Z,69.80
2018-07-30T14:46:46.977Z,65.40
2018-07-30T14:49:15.669Z,65.70
2018-07-30T14:51:44.615Z,67.20
2018-07-30T14:54:13.266Z,67.60
2018-07-30T14:56:41.881Z,67.20
2018-07-30T14:59:10.660Z,65.80
2018-07-30T15:01:39.246Z,68.70
2018-07-30T15:04:08.012Z,65.70
2018-07-30T15:06:36.916Z,65.20
2018-07-30T15:09:09.186Z,68.20
2018-07-30T15:11:38.346Z,69.60
2018-07-30T15:14:07.005Z,70.50
2018-07-30T15:16:35.872Z,75.30
2018-07-30T15:19:04.957Z,72.50
2018-07-30T15:21:33.597Z,73.20
2018-07-30T15:24:02.248Z,75.40
2018-07-30T15:26:31.029Z,75.10
2018-07-30T15:28:59.713Z,78.30
2018-07-30T15:31:28.413Z,73.40
2018-07-30T15:33:57.154Z,75.80
2018-07-30T15:36:25.857Z,78.70
2018-07-30T15:38:54.553Z,81.40
2018-07-30T15:41:23.250Z,77.20
2018-07-30T15:43:51.863Z,76.20
2018-07-30T15:46:20.694Z,80.20
2018-07-30T15:48:49.359Z,78.70
2018-07-30T15:51:17.976Z,75.30
2018-07-30T15:53:46.593Z,78.40
2018-07-30T15:56:15.221Z,78.80
2018-07-30T15:58:43.858Z,83.30
2018-07-30T16:01:12.517Z,80.30
2018-07-30T16:03:41.191Z,78.50
2018-07-30T16:06:09.853Z,81.00
2018-07-30T16:08:38.477Z,77.40
2018-07-30T16:11:07.330Z,83.00
2018-07-30T16:13:35.980Z,74.00
2018-07-30T16:16:04.672Z,71.90
2018-07-30T16:18:33.310Z,73.90
2018-07-30T16:21:02.036Z,72.90
2018-07-30T16:23:30.702Z,70.40
2018-07-30T16:25:59.529Z,73.80
2018-07-30T16:28:28.237Z,69.30
2018-07-30T16:30:57.083Z,70.10
2018-07-30T16:33:25.789Z,71.00
2018-07-30T16:35:54.525Z,72.30
2018-07-30T16:38:47.975Z,74.50
2018-07-30T16:41:16.685Z,71.90
2018-07-30T16:43:45.349Z,74.40
2018-07-30T16:46:13.967Z,69.50
2018-07-30T16:48:42.634Z,69.50
2018-07-30T16:51:11.312Z,72.30
2018-07-30T16:53:39.974Z,70.60
2018-07-30T16:56:08.686Z,69.50
2018-07-30T16:58:37.324Z,72.60
2018-07-30T17:01:06.125Z,73.70
2018-07-30T17:03:34.849Z,70.00
2018-07-30T17:06:03.483Z,68.40
2018-07-30T17:08:32.087Z,68.70
2018-07-30T17:11:00.697Z,72.70
2018-07-30T17:13:29.526Z,71.70
2018-07-30T17:15:58.268Z,72.50
2018-07-30T17:18:27.084Z,69.60
2018-07-30T17:20:55.806Z,71.20
2018-07-30T17:23:24.785Z,72.70
2018-07-30T17:25:53.476Z,72.00
2018-07-30T17:28:22.107Z,71.90
2018-07-30T17:30:50.774Z,70.90
2018-07-30T17:33:19.426Z,69.60
2018-07-30T17:35:48.081Z,71.40
2018-07-30T17:38:16.659Z,73.50
2018-07-30T17:40:45.480Z,74.00
2018-07-30T17:43:14.181Z,71.90
2018-07-30T17:45:42.875Z,72.90
2018-07-30T17:48:11.529Z,74.60
2018-07-30T17:50:40.221Z,74.10
2018-07-30T17:53:08.904Z,72.80
2018-07-30T17:55:37.461Z,72.50
2018-07-30T17:58:06.103Z,75.60
2018-07-30T18:00:34.684Z,76.90
2018-07-30T18:03:03.309Z,75.10
2018-07-30T18:05:31.938Z,76.00
2018-07-30T18:08:00.505Z,76.00
2018-07-30T18:10:29.228Z,80.70
2018-07-30T18:12:57.968Z,84.00
2018-07-30T18:15:26.806Z,79.70
2018-07-30T18:17:55.533Z,86.70
2018-07-30T18:20:24.324Z,88.00
2018-07-30T18:22:53.664Z,90.30
2018-07-30T18:25:23.353Z,84.80
2018-07-30T18:27:52.057Z,89.70
2018-07-30T18:30:20.657Z,88.90
2018-07-30T18:32:49.242Z,87.70
2018-07-30T18:35:17.929Z,85.60
2018-07-30T18:37:46.532Z,83.90
2018-07-30T18:40:15.194Z,91.90
2018-07-30T18:42:43.861Z,89.90
2018-07-30T18:45:12.485Z,86.50
2018-07-30T18:47:41.127Z,90.70
2018-07-30T18:50:09.705Z,92.00
2018-07-30T18:52:38.365Z,90.60
2018-07-30T18:55:07.018Z,92.80
2018-07-30T18:57:35.669Z,91.40
2018-07-30T19:00:05.105Z,92.00
2018-07-30T19:02:33.768Z,92.30
2018-07-30T19:05:02.577Z,92.40
2018-07-30T19:07:31.212Z,91.50
2018-07-30T19:10:03.029Z,94.50
2018-07-30T19:12:31.672Z,95.50
2018-07-30T19:15:00.329Z,92.50
2018-07-30T19:17:28.988Z,97.80
2018-07-30T19:19:57.697Z,95.00
2018-07-30T19:22:26.663Z,96.80
2018-07-30T19:24:55.445Z,97.80
2018-07-30T19:27:24.134Z,99.90
2018-07-30T19:29:52.760Z,99.90
2018-07-30T19:32:21.392Z,99.50
2018-07-30T19:34:49.980Z,99.90
2018-07-30T19:37:19.438Z,99.90
2018-07-30T19:39:48.158Z,99.90
2018-07-30T19:42:16.893Z,99.90
2018-07-30T19:44:45.585Z,99.90
2018-07-30T19:47:14.297Z,99.90
2018-07-30T19:49:42.925Z,99.90
2018-07-30T19:52:11.610Z,99.90
2018-07-30T19:54:40.797Z,99.90
2018-07-30T19:57:09.720Z,99.90
2018-07-30T19:59:38.349Z,99.90
2018-07-30T20:02:07.008Z,99.90
2018-07-30T20:04:36.600Z,99.90
2018-07-30T20:07:05.305Z,99.90
2018-07-30T20:09:33.989Z,99.90
2018-07-30T20:12:02.603Z,99.90
2018-07-30T20:14:31.198Z,99.90
2018-07-30T20:17:00.133Z,99.90
2018-07-30T20:19:28.880Z,99.90
2018-07-30T20:21:57.548Z,99.90
2018-07-30T20:24:26.279Z,99.90
2018-07-30T20:26:54.987Z,99.90
2018-07-30T20:29:23.647Z,99.90
2018-07-30T20:31:52.314Z,99.90
2018-07-30T20:36:49.198Z,99.90
2018-07-30T20:39:17.829Z,99.90
2018-07-30T20:41:46.544Z,99.90
2018-07-30T20:44:15.189Z,99.90
2018-07-30T20:46:43.817Z,99.90
2018-07-30T20:49:12.516Z,99.90
2018-07-30T20:51:41.149Z,99.90
2018-07-30T20:54:09.826Z,99.90
2018-07-30T20:56:38.445Z,99.90
2018-07-30T20:59:07.097Z,99.90
2018-07-30T21:01:35.724Z,99.90
2018-07-30T21:04:04.341Z,99.90
2018-07-30T21:06:32.964Z,99.90
2018-07-30T21:09:01.610Z,99.90
2018-07-30T21:11:30.272Z,99.90
2018-07-30T21:13:58.906Z,99.90
2018-07-30T21:16:27.696Z,99.90
2018-07-30T21:18:56.422Z,99.90
2018-07-30T21:21:25.119Z,99.90
2018-07-30T21:23:53.779Z,99.90
2018-07-30T21:26:22.509Z,99.90
2018-07-30T21:28:51.117Z,99.90
2018-07-30T21:31:19.801Z,99.90
2018-07-30T21:33:48.496Z,99.90
2018-07-30T21:36:17.109Z,99.90
2018-07-30T21:38:45.715Z,99.90
2018-07-30T21:41:14.354Z,99.90
2018-07-30T21:43:43.064Z,99.90
2018-07-30T21:46:11.813Z,99.90
2018-07-30T21:48:40.597Z,99.90
2018-07-30T21:51:09.189Z,99.90
2018-07-30T21:53:38.133Z,99.90
2018-07-30T21:56:06.993Z,99.90
2018-07-30T21:58:35.628Z,99.90
2018-07-30T22:01:04.296Z,99.90
2018-07-30T22:03:32.924Z,99.90
2018-07-30T22:06:01.838Z,99.90
2018-07-30T22:08:30.496Z,99.90
2018-07-30T22:10:59.162Z,99.90
2018-07-30T22:13:27.829Z,99.90
2018-07-30T22:15:56.580Z,99.90
2018-07-30T22:18:25.247Z,99.90
2018-07-30T22:20:53.882Z,99.90
2018-07-30T22:23:22.564Z,99.90
2018-07-30T22:25:51.165Z,99.90
2018-07-30T22:28:19.773Z,99.90
2018-07-30T22:30:48.413Z,99.90
2018-07-30T22:33:16.982Z,99.90
2018-07-30T22:35:45.629Z,99.90
2018-07-30T22:38:14.257Z,99.90
2018-07-30T22:40:42.960Z,99.90
2018-07-30T22:43:11.653Z,99.90
2018-07-30T22:45:40.481Z,99.90
2018-07-30T22:48:09.183Z,99.90
2018-07-30T22:50:37.809Z,99.90
2018-07-30T22:53:06.417Z,99.90
2018-07-30T22:55:35.073Z,99.90
2018-07-30T22:58:03.665Z,99.90
2018-07-30T23:00:32.333Z,99.90
2018-07-30T23:03:01.029Z,99.90
2018-07-30T23:05:29.644Z,99.90
2018-07-30T23:07:58.482Z,99.90
2018-07-30T23:10:27.272Z,99.90
2018-07-30T23:12:56.013Z,99.90
2018-07-30T23:15:24.770Z,99.90
2018-07-30T23:17:53.527Z,99.90
2018-07-30T23:20:22.153Z,99.90
2018-07-30T23:22:50.845Z,99.90
2018-07-30T23:25:19.481Z,99.90
2018-07-30T23:27:48.069Z,99.90
2018-07-30T23:30:16.660Z,99.90
2018-07-30T23:32:45.277Z,99.90
2018-07-30T23:35:13.879Z,99.90
2018-07-30T23:37:42.569Z,99.90
2018-07-30T23:40:11.223Z,99.90
2018-07-30T23:42:39.836Z,99.90
2018-07-30T23:45:08.513Z,99.90
2018-07-30T23:47:37.100Z,99.90
2018-07-30T23:50:05.858Z,99.90
2018-07-30T23:52:34.470Z,99.90
2018-07-30T23:55:03.293Z,99.90
2018-07-30T23:57:31.984Z,99.90
